サンクトペテルブルク の空港の天気 - METARとTAF

プルコヴォ空港(サンクトペテルブルグ) ( ULLI / LED ) - ロシア サンクトペテルブルク
飛行場実況気象(Metar)
観測時間04/21 17:30 MSK (04/21 14:30 UTC)
風向・風速南南西 3m/s
視程10km以上
天気現象
なし
気温14℃
湿度26%
気圧1027hPa
METARULLI 211430Z 20003MPS 100V270 CAVOK 14/M05 Q1027 R88/090060 NOSIG
過去の天気等 Google飛行場航空写真 Wunderground天気予報

過去48時間のMETAR

飛行場予報(TAF)
発表時間: 4/21 17:00 MSK (4/21 14:00 UTC)
予報対象時間: 21日18時 MSK ~ 22日18時 MSK
風向・風速南 3m/s
視程10km以上
全天の4割程度の雲 雲底高度 910m
21日18時 MSK ~ 21日21時 MSK に一時的に
風向・風速不定 1m/s
21日21時 MSK ~ 22日1時 MSK に一時的に
風向・風速東 3m/s
22日1時 MSK ~ 22日7時 MSK に一時的に
視程3100m
天気現象もや
22日8時 MSK ~ 22日10時 MSK に徐々に
風向・風速西南西 3m/s
22日12時 MSK ~ 22日18時 MSK に一時的に
風向・風速西 6m/s 瞬間風速 12m/s
TAF ULLI 211400Z 2115/2215 18003MPS 9999 SCT030
TEMPO 2115/2118 VRB01MPS
TEMPO 2118/2122 09003MPS
TEMPO 2122/2204 3100 BR
BECMG 2205/2207 24003MPS
TEMPO 2209/2215 26006G12MPS